Airfield :
LOGIN :

Register | Disclaimer

   EN    FR    IT 

 










Legend :    VFR   Marginal VFR   IFR   Intensive IFR   Very Intensive IFR
Visi :
Ceiling :
>= 8 km
>= 3000ft
5 to 8 km
1000 to 3000 ft
1500m to 5 km
500 to 1000 ft
800 to 1500m
200 to 500 ft
< 800m
< 200 ft
Symbols :   Thunderstorms  Fog  Heavy snow  Heavy precipitations  Wind > 20 kt
SIGMETs :     Misc.  Thunderstorms  Icing  Turbulence  Mountain Waves  Volcanic Ashes






- Airport Elevation : 49 ft
- IATA code : GLZ


EHGR - Gilze-Rijen Airbase

CURRENT METAR :
  • 170725Z AUTO 16001KT 4600 BR NCD 01/00 Q1012 GRN

EXPIRED METARs :
  • 170655Z AUTO 13002KT 3900 BR NCD 01/00 Q1012 GRN
  • 170635Z AUTO 14002KT 3600 BR NCD 01/01 Q1012 YLO
  • 170625Z AUTO 14002KT 4100 BR NCD 01/01 Q1011 GRN
  • 170609Z AUTO 16003KT 3500 BR NCD 01/01 Q1011 YLO
  • 170556Z AUTO 15002KT 3500 BR NCD 01/01 Q1011 YLO
  • 170555Z AUTO 14002KT 5000 BR NCD 01/01 Q1011 WHT
  • 170536Z AUTO 14002KT 4400 BR NCD 00/M00 Q1011 GRN
  • 170525Z AUTO 13002KT 3900 BR NCD 00/00 Q1011 GRN
  • 170512Z AUTO 14001KT 5000 BR NCD 01/01 Q1011 WHT
  • 170459Z AUTO 14002KT 5000 BR NCD 01/00 Q1011 WHT
  • 170455Z AUTO 14002KT 4400 BR NCD 01/01 Q1011 GRN

Expired Forecast.



MET'MAP, your aeronautical weather chart ! - Copyright ORBIFLY December 2007 - Disclaimer

ORBIFLY MET'MAP TEAM :

Programming & Development : Alexandra Zaïnal
Concept & Development : Baudouin d'Aumeries
Co-Development & Prog : Marc-Olivier Méhu
Technical & hardware support : Manuel Goepfert

Contact : metmap@orbifly.com




SOURCES & CREDITS :

   NOAA